KBOS

Boston/Logan International

Airport
ICAO code
KBOS
IATA Code
BOS
Summary
ICAO Region
NAM
ICAO Territory
Location

East Boston, Massachusetts,

Serving
Boston
Elevation
20 ft
Coordinates
42° 21' 55" N , 71° 0' 27" W
KCC
Dfa
Airport BS
Bird Strike
Airport LOS
Parallel Runway Operation
Airport RE
Engineered Materials Arresting System
Metar
Observation
KBOS 081954Z 20013G23KT 10SM SCT060 BKN250 36/21 A2986 RMK AO2 SLP112 T03560206
Station
Boston, Logan International Airport
Date/Time
2022-08-08 19:54:00
Wind direction
200°
Wind speed
13 kts
Lowest cloud amount
scattered clouds
Temperature
35.6°C
Dew point
20.6°C
Humidity
41%
Weather condition
n/a

Description

General Edward Lawrence Logan International Airport in the East Boston neighbourhood of Boston, Massachusetts, United States.

Climatology

Humid continental climate with a maritime influence (Köppen climate classification Dfa/Cfa) - characterized by four seasons: cold, windy, snowy winters, mild springs, hot, humid summers, and crisp and relatively short autumns. Precipitation reaches its lowest in January and February and peaks in summer and latter half of spring.

Airport map

Aerial View

Airport accidents

SKYbrary Partners:

Safety knowledge contributed by: